sensor_id;sensor_type;location;lat;lon;timestamp;P1;durP1;ratioP1;P2;durP2;ratioP2
8013;SDS011;4052;50.500;8.660;2022-07-29T00:00:12;1.47;;;0.57;;
8013;SDS011;4052;50.500;8.660;2022-07-29T00:02:38;3.30;;;0.70;;
8013;SDS011;4052;50.500;8.660;2022-07-29T00:05:04;1.67;;;0.73;;
8013;SDS011;4052;50.500;8.660;2022-07-29T00:07:30;0.87;;;0.50;;
8013;SDS011;4052;50.500;8.660;2022-07-29T00:09:56;1.30;;;0.57;;
8013;SDS011;4052;50.500;8.660;2022-07-29T00:12:23;0.97;;;0.60;;
8013;SDS011;4052;50.500;8.660;2022-07-29T00:14:51;0.50;;;0.50;;
8013;SDS011;4052;50.500;8.660;2022-07-29T00:17:17;0.40;;;0.40;;
8013;SDS011;4052;50.500;8.660;2022-07-29T00:19:43;0.47;;;0.43;;
8013;SDS011;4052;50.500;8.660;2022-07-29T00:22:09;3.50;;;0.50;;
8013;SDS011;4052;50.500;8.660;2022-07-29T00:24:35;0.57;;;0.37;;
8013;SDS011;4052;50.500;8.660;2022-07-29T00:27:01;1.97;;;0.40;;
8013;SDS011;4052;50.500;8.660;2022-07-29T00:29:27;1.27;;;0.60;;
8013;SDS011;4052;50.500;8.660;2022-07-29T00:31:52;0.40;;;0.40;;
8013;SDS011;4052;50.500;8.660;2022-07-29T00:34:18;0.30;;;0.30;;
8013;SDS011;4052;50.500;8.660;2022-07-29T00:37:03;1.07;;;0.30;;
8013;SDS011;4052;50.500;8.660;2022-07-29T00:39:29;0.50;;;0.50;;
8013;SDS011;4052;50.500;8.660;2022-07-29T00:41:55;0.47;;;0.37;;
8013;SDS011;4052;50.500;8.660;2022-07-29T00:44:21;1.27;;;0.57;;
8013;SDS011;4052;50.500;8.660;2022-07-29T00:46:47;0.70;;;0.60;;
8013;SDS011;4052;50.500;8.660;2022-07-29T00:49:13;0.40;;;0.40;;
8013;SDS011;4052;50.500;8.660;2022-07-29T00:51:39;0.37;;;0.37;;
8013;SDS011;4052;50.500;8.660;2022-07-29T00:54:05;0.20;;;0.20;;
8013;SDS011;4052;50.500;8.660;2022-07-29T00:56:31;0.40;;;0.40;;
8013;SDS011;4052;50.500;8.660;2022-07-29T00:58:58;0.60;;;0.60;;
8013;SDS011;4052;50.500;8.660;2022-07-29T01:01:24;0.40;;;0.33;;
8013;SDS011;4052;50.500;8.660;2022-07-29T01:03:50;0.90;;;0.90;;
8013;SDS011;4052;50.500;8.660;2022-07-29T01:06:17;0.77;;;0.20;;
8013;SDS011;4052;50.500;8.660;2022-07-29T01:08:43;0.47;;;0.47;;
8013;SDS011;4052;50.500;8.660;2022-07-29T01:11:10;0.50;;;0.50;;
8013;SDS011;4052;50.500;8.660;2022-07-29T01:13:36;0.67;;;0.50;;
8013;SDS011;4052;50.500;8.660;2022-07-29T01:16:10;0.80;;;0.30;;
8013;SDS011;4052;50.500;8.660;2022-07-29T01:18:39;1.13;;;0.50;;
8013;SDS011;4052;50.500;8.660;2022-07-29T01:21:17;0.30;;;0.30;;
8013;SDS011;4052;50.500;8.660;2022-07-29T01:31:25;0.60;;;0.50;;
8013;SDS011;4052;50.500;8.660;2022-07-29T01:33:57;0.60;;;0.50;;
8013;SDS011;4052;50.500;8.660;2022-07-29T01:36:28;0.23;;;0.23;;
8013;SDS011;4052;50.500;8.660;2022-07-29T01:39:12;0.40;;;0.40;;
8013;SDS011;4052;50.500;8.660;2022-07-29T01:41:49;0.40;;;0.40;;
8013;SDS011;4052;50.500;8.660;2022-07-29T01:44:20;0.43;;;0.43;;
8013;SDS011;4052;50.500;8.660;2022-07-29T01:46:52;0.50;;;0.50;;
8013;SDS011;4052;50.500;8.660;2022-07-29T01:49:24;1.03;;;0.50;;
8013;SDS011;4052;50.500;8.660;2022-07-29T01:51:52;0.50;;;0.50;;
8013;SDS011;4052;50.500;8.660;2022-07-29T01:56:45;0.30;;;0.30;;
8013;SDS011;4052;50.500;8.660;2022-07-29T01:59:13;0.40;;;0.40;;
8013;SDS011;4052;50.500;8.660;2022-07-29T02:01:39;0.40;;;0.40;;
8013;SDS011;4052;50.500;8.660;2022-07-29T02:04:06;0.40;;;0.40;;
8013;SDS011;4052;50.500;8.660;2022-07-29T02:06:34;0.80;;;0.60;;
8013;SDS011;4052;50.500;8.660;2022-07-29T02:09:02;0.40;;;0.40;;
8013;SDS011;4052;50.500;8.660;2022-07-29T02:11:30;0.70;;;0.63;;
8013;SDS011;4052;50.500;8.660;2022-07-29T02:13:56;0.50;;;0.50;;
8013;SDS011;4052;50.500;8.660;2022-07-29T02:16:23;0.63;;;0.50;;
8013;SDS011;4052;50.500;8.660;2022-07-29T02:18:51;2.73;;;0.50;;
8013;SDS011;4052;50.500;8.660;2022-07-29T02:21:20;1.20;;;0.70;;
8013;SDS011;4052;50.500;8.660;2022-07-29T02:23:46;0.43;;;0.43;;
8013;SDS011;4052;50.500;8.660;2022-07-29T02:26:14;0.40;;;0.40;;
8013;SDS011;4052;50.500;8.660;2022-07-29T02:28:40;0.50;;;0.50;;
8013;SDS011;4052;50.500;8.660;2022-07-29T02:31:06;0.87;;;0.80;;
8013;SDS011;4052;50.500;8.660;2022-07-29T02:33:33;0.63;;;0.53;;
8013;SDS011;4052;50.500;8.660;2022-07-29T02:35:59;0.50;;;0.50;;
8013;SDS011;4052;50.500;8.660;2022-07-29T02:38:27;0.47;;;0.43;;
8013;SDS011;4052;50.500;8.660;2022-07-29T02:44:00;0.30;;;0.30;;
8013;SDS011;4052;50.500;8.660;2022-07-29T02:46:34;0.37;;;0.37;;
8013;SDS011;4052;50.500;8.660;2022-07-29T02:49:07;3.00;;;0.93;;
8013;SDS011;4052;50.500;8.660;2022-07-29T02:51:40;0.83;;;0.60;;
8013;SDS011;4052;50.500;8.660;2022-07-29T02:54:07;0.50;;;0.50;;
8013;SDS011;4052;50.500;8.660;2022-07-29T02:56:35;0.50;;;0.50;;
8013;SDS011;4052;50.500;8.660;2022-07-29T02:59:03;0.60;;;0.60;;
8013;SDS011;4052;50.500;8.660;2022-07-29T03:01:30;0.40;;;0.40;;
8013;SDS011;4052;50.500;8.660;2022-07-29T03:03:57;0.63;;;0.63;;
8013;SDS011;4052;50.500;8.660;2022-07-29T03:06:25;0.47;;;0.37;;
8013;SDS011;4052;50.500;8.660;2022-07-29T03:08:52;1.47;;;0.70;;
8013;SDS011;4052;50.500;8.660;2022-07-29T03:11:19;0.30;;;0.30;;
8013;SDS011;4052;50.500;8.660;2022-07-29T03:13:45;2.13;;;0.90;;
8013;SDS011;4052;50.500;8.660;2022-07-29T03:16:11;0.67;;;0.67;;
8013;SDS011;4052;50.500;8.660;2022-07-29T03:18:37;4.33;;;0.90;;
8013;SDS011;4052;50.500;8.660;2022-07-29T03:21:04;1.70;;;0.70;;
8013;SDS011;4052;50.500;8.660;2022-07-29T03:23:30;1.53;;;0.60;;
8013;SDS011;4052;50.500;8.660;2022-07-29T03:25:56;0.70;;;0.50;;
8013;SDS011;4052;50.500;8.660;2022-07-29T03:28:22;0.67;;;0.67;;
8013;SDS011;4052;50.500;8.660;2022-07-29T03:30:48;0.57;;;0.57;;
8013;SDS011;4052;50.500;8.660;2022-07-29T03:33:14;0.60;;;0.60;;
8013;SDS011;4052;50.500;8.660;2022-07-29T03:35:40;2.07;;;0.60;;
8013;SDS011;4052;50.500;8.660;2022-07-29T03:38:07;0.43;;;0.43;;
8013;SDS011;4052;50.500;8.660;2022-07-29T03:40:49;2.60;;;0.80;;
8013;SDS011;4052;50.500;8.660;2022-07-29T03:43:17;0.50;;;0.50;;
8013;SDS011;4052;50.500;8.660;2022-07-29T03:45:44;0.60;;;0.53;;
8013;SDS011;4052;50.500;8.660;2022-07-29T03:48:12;0.60;;;0.43;;
8013;SDS011;4052;50.500;8.660;2022-07-29T03:50:39;0.60;;;0.60;;
8013;SDS011;4052;50.500;8.660;2022-07-29T03:53:05;0.43;;;0.43;;
8013;SDS011;4052;50.500;8.660;2022-07-29T03:55:33;0.60;;;0.50;;
8013;SDS011;4052;50.500;8.660;2022-07-29T03:58:01;0.50;;;0.50;;
8013;SDS011;4052;50.500;8.660;2022-07-29T04:00:28;0.60;;;0.60;;
8013;SDS011;4052;50.500;8.660;2022-07-29T04:02:54;1.20;;;1.10;;
8013;SDS011;4052;50.500;8.660;2022-07-29T04:05:20;1.03;;;0.93;;
8013;SDS011;4052;50.500;8.660;2022-07-29T04:07:46;0.70;;;0.60;;
8013;SDS011;4052;50.500;8.660;2022-07-29T04:10:13;1.43;;;0.60;;
8013;SDS011;4052;50.500;8.660;2022-07-29T04:12:40;0.70;;;0.70;;
8013;SDS011;4052;50.500;8.660;2022-07-29T04:15:06;0.70;;;0.70;;
8013;SDS011;4052;50.500;8.660;2022-07-29T04:17:32;1.17;;;0.70;;
8013;SDS011;4052;50.500;8.660;2022-07-29T04:19:58;1.00;;;0.50;;
8013;SDS011;4052;50.500;8.660;2022-07-29T04:22:24;2.27;;;0.80;;
8013;SDS011;4052;50.500;8.660;2022-07-29T04:24:50;0.50;;;0.50;;
8013;SDS011;4052;50.500;8.660;2022-07-29T04:27:16;0.63;;;0.63;;
8013;SDS011;4052;50.500;8.660;2022-07-29T04:29:42;1.40;;;0.70;;
8013;SDS011;4052;50.500;8.660;2022-07-29T04:32:08;0.50;;;0.50;;
8013;SDS011;4052;50.500;8.660;2022-07-29T04:34:34;0.80;;;0.80;;
8013;SDS011;4052;50.500;8.660;2022-07-29T04:37:00;4.00;;;0.60;;
8013;SDS011;4052;50.500;8.660;2022-07-29T04:39:26;0.50;;;0.50;;
8013;SDS011;4052;50.500;8.660;2022-07-29T04:41:52;0.70;;;0.70;;
8013;SDS011;4052;50.500;8.660;2022-07-29T04:44:18;2.93;;;0.80;;
8013;SDS011;4052;50.500;8.660;2022-07-29T04:46:44;1.43;;;0.73;;
8013;SDS011;4052;50.500;8.660;2022-07-29T04:49:10;0.40;;;0.40;;
8013;SDS011;4052;50.500;8.660;2022-07-29T04:51:36;1.63;;;0.87;;
8013;SDS011;4052;50.500;8.660;2022-07-29T04:54:02;0.80;;;0.80;;
8013;SDS011;4052;50.500;8.660;2022-07-29T04:56:28;0.67;;;0.67;;
8013;SDS011;4052;50.500;8.660;2022-07-29T04:58:54;3.20;;;1.30;;
8013;SDS011;4052;50.500;8.660;2022-07-29T05:01:20;2.80;;;1.63;;
8013;SDS011;4052;50.500;8.660;2022-07-29T05:03:46;1.93;;;0.97;;
8013;SDS011;4052;50.500;8.660;2022-07-29T05:06:12;1.07;;;1.03;;
8013;SDS011;4052;50.500;8.660;2022-07-29T05:08:38;1.77;;;1.20;;
8013;SDS011;4052;50.500;8.660;2022-07-29T05:11:04;4.70;;;2.27;;
8013;SDS011;4052;50.500;8.660;2022-07-29T05:13:30;4.63;;;3.10;;
8013;SDS011;4052;50.500;8.660;2022-07-29T05:15:56;1.17;;;1.13;;
8013;SDS011;4052;50.500;8.660;2022-07-29T05:18:23;1.87;;;1.10;;
8013;SDS011;4052;50.500;8.660;2022-07-29T05:20:49;2.23;;;1.17;;
8013;SDS011;4052;50.500;8.660;2022-07-29T05:23:15;1.20;;;1.10;;
8013;SDS011;4052;50.500;8.660;2022-07-29T05:25:41;1.27;;;1.00;;
8013;SDS011;4052;50.500;8.660;2022-07-29T05:28:07;1.20;;;1.10;;
8013;SDS011;4052;50.500;8.660;2022-07-29T05:30:33;2.50;;;0.60;;
8013;SDS011;4052;50.500;8.660;2022-07-29T05:32:59;2.60;;;0.70;;
8013;SDS011;4052;50.500;8.660;2022-07-29T05:35:25;0.63;;;0.63;;
8013;SDS011;4052;50.500;8.660;2022-07-29T05:37:50;1.40;;;1.00;;
8013;SDS011;4052;50.500;8.660;2022-07-29T05:40:16;0.83;;;0.83;;
8013;SDS011;4052;50.500;8.660;2022-07-29T05:42:42;0.73;;;0.60;;
8013;SDS011;4052;50.500;8.660;2022-07-29T05:45:08;0.90;;;0.80;;
8013;SDS011;4052;50.500;8.660;2022-07-29T05:47:34;0.83;;;0.60;;
8013;SDS011;4052;50.500;8.660;2022-07-29T05:50:00;1.00;;;1.00;;
8013;SDS011;4052;50.500;8.660;2022-07-29T05:52:26;1.00;;;0.90;;
8013;SDS011;4052;50.500;8.660;2022-07-29T05:54:53;0.73;;;0.70;;
8013;SDS011;4052;50.500;8.660;2022-07-29T05:57:20;0.83;;;0.80;;
8013;SDS011;4052;50.500;8.660;2022-07-29T05:59:46;0.60;;;0.60;;
8013;SDS011;4052;50.500;8.660;2022-07-29T06:02:13;2.00;;;0.63;;
8013;SDS011;4052;50.500;8.660;2022-07-29T06:04:39;1.80;;;0.60;;
8013;SDS011;4052;50.500;8.660;2022-07-29T06:07:05;1.03;;;0.70;;
8013;SDS011;4052;50.500;8.660;2022-07-29T06:09:31;0.90;;;0.90;;
8013;SDS011;4052;50.500;8.660;2022-07-29T06:11:57;0.73;;;0.67;;
8013;SDS011;4052;50.500;8.660;2022-07-29T06:14:23;0.70;;;0.70;;
8013;SDS011;4052;50.500;8.660;2022-07-29T06:16:50;0.70;;;0.47;;
8013;SDS011;4052;50.500;8.660;2022-07-29T06:19:16;1.03;;;0.70;;
8013;SDS011;4052;50.500;8.660;2022-07-29T06:21:45;0.50;;;0.50;;
8013;SDS011;4052;50.500;8.660;2022-07-29T06:24:12;3.07;;;0.93;;
8013;SDS011;4052;50.500;8.660;2022-07-29T06:26:38;1.70;;;0.93;;
8013;SDS011;4052;50.500;8.660;2022-07-29T06:29:04;1.30;;;0.90;;
8013;SDS011;4052;50.500;8.660;2022-07-29T06:31:31;0.70;;;0.60;;
8013;SDS011;4052;50.500;8.660;2022-07-29T06:33:57;2.57;;;0.90;;
8013;SDS011;4052;50.500;8.660;2022-07-29T06:36:23;1.00;;;0.60;;
8013;SDS011;4052;50.500;8.660;2022-07-29T06:38:48;0.70;;;0.70;;
8013;SDS011;4052;50.500;8.660;2022-07-29T06:41:14;0.70;;;0.70;;
8013;SDS011;4052;50.500;8.660;2022-07-29T06:43:41;1.17;;;0.80;;
8013;SDS011;4052;50.500;8.660;2022-07-29T06:46:09;1.37;;;1.30;;
8013;SDS011;4052;50.500;8.660;2022-07-29T06:48:36;1.17;;;0.80;;
8013;SDS011;4052;50.500;8.660;2022-07-29T06:51:03;0.70;;;0.70;;
8013;SDS011;4052;50.500;8.660;2022-07-29T06:53:29;0.67;;;0.60;;
8013;SDS011;4052;50.500;8.660;2022-07-29T06:55:55;1.10;;;0.87;;
8013;SDS011;4052;50.500;8.660;2022-07-29T06:58:23;1.20;;;0.70;;
8013;SDS011;4052;50.500;8.660;2022-07-29T07:00:49;0.70;;;0.70;;
8013;SDS011;4052;50.500;8.660;2022-07-29T07:03:16;0.73;;;0.73;;
8013;SDS011;4052;50.500;8.660;2022-07-29T07:05:42;1.23;;;0.63;;
8013;SDS011;4052;50.500;8.660;2022-07-29T07:08:08;0.93;;;0.83;;
8013;SDS011;4052;50.500;8.660;2022-07-29T07:10:34;1.20;;;0.60;;
8013;SDS011;4052;50.500;8.660;2022-07-29T07:13:00;0.70;;;0.70;;
8013;SDS011;4052;50.500;8.660;2022-07-29T07:15:27;0.60;;;0.60;;
8013;SDS011;4052;50.500;8.660;2022-07-29T07:17:53;0.93;;;0.80;;
8013;SDS011;4052;50.500;8.660;2022-07-29T07:20:18;0.93;;;0.80;;
8013;SDS011;4052;50.500;8.660;2022-07-29T07:22:44;0.70;;;0.70;;
8013;SDS011;4052;50.500;8.660;2022-07-29T07:25:12;1.10;;;1.10;;
8013;SDS011;4052;50.500;8.660;2022-07-29T07:27:38;0.60;;;0.60;;
8013;SDS011;4052;50.500;8.660;2022-07-29T07:30:05;0.50;;;0.50;;
8013;SDS011;4052;50.500;8.660;2022-07-29T07:32:32;1.50;;;0.70;;
8013;SDS011;4052;50.500;8.660;2022-07-29T07:34:58;0.60;;;0.57;;
8013;SDS011;4052;50.500;8.660;2022-07-29T07:37:24;0.60;;;0.60;;
8013;SDS011;4052;50.500;8.660;2022-07-29T07:39:50;0.90;;;0.90;;
8013;SDS011;4052;50.500;8.660;2022-07-29T07:42:16;2.47;;;0.90;;
8013;SDS011;4052;50.500;8.660;2022-07-29T07:44:42;0.70;;;0.70;;
8013;SDS011;4052;50.500;8.660;2022-07-29T07:47:10;0.87;;;0.87;;
8013;SDS011;4052;50.500;8.660;2022-07-29T07:49:36;1.57;;;1.00;;
8013;SDS011;4052;50.500;8.660;2022-07-29T07:52:02;2.07;;;0.73;;
8013;SDS011;4052;50.500;8.660;2022-07-29T07:54:28;1.53;;;0.77;;
8013;SDS011;4052;50.500;8.660;2022-07-29T07:56:54;1.13;;;0.80;;
8013;SDS011;4052;50.500;8.660;2022-07-29T07:59:20;1.23;;;1.13;;
8013;SDS011;4052;50.500;8.660;2022-07-29T08:01:46;3.13;;;0.60;;
8013;SDS011;4052;50.500;8.660;2022-07-29T08:04:12;0.63;;;0.50;;
8013;SDS011;4052;50.500;8.660;2022-07-29T08:06:38;0.83;;;0.83;;
8013;SDS011;4052;50.500;8.660;2022-07-29T08:09:04;0.70;;;0.70;;
8013;SDS011;4052;50.500;8.660;2022-07-29T08:11:30;3.17;;;0.87;;
8013;SDS011;4052;50.500;8.660;2022-07-29T08:13:56;2.07;;;0.77;;
8013;SDS011;4052;50.500;8.660;2022-07-29T08:16:22;0.50;;;0.50;;
8013;SDS011;4052;50.500;8.660;2022-07-29T08:18:50;0.80;;;0.77;;
8013;SDS011;4052;50.500;8.660;2022-07-29T08:21:16;0.93;;;0.93;;
8013;SDS011;4052;50.500;8.660;2022-07-29T08:23:46;2.10;;;0.73;;
8013;SDS011;4052;50.500;8.660;2022-07-29T08:26:15;1.17;;;0.93;;
8013;SDS011;4052;50.500;8.660;2022-07-29T08:28:42;1.87;;;0.90;;
8013;SDS011;4052;50.500;8.660;2022-07-29T08:31:14;0.83;;;0.80;;
8013;SDS011;4052;50.500;8.660;2022-07-29T08:33:40;0.87;;;0.87;;
8013;SDS011;4052;50.500;8.660;2022-07-29T08:36:06;0.70;;;0.70;;
8013;SDS011;4052;50.500;8.660;2022-07-29T08:38:33;0.70;;;0.70;;
8013;SDS011;4052;50.500;8.660;2022-07-29T08:41:02;0.90;;;0.80;;
8013;SDS011;4052;50.500;8.660;2022-07-29T08:43:28;0.50;;;0.50;;
8013;SDS011;4052;50.500;8.660;2022-07-29T08:45:54;0.77;;;0.77;;
8013;SDS011;4052;50.500;8.660;2022-07-29T08:48:21;0.63;;;0.63;;
8013;SDS011;4052;50.500;8.660;2022-07-29T08:50:48;1.17;;;1.17;;
8013;SDS011;4052;50.500;8.660;2022-07-29T08:53:15;0.70;;;0.70;;
8013;SDS011;4052;50.500;8.660;2022-07-29T08:55:42;0.60;;;0.60;;
8013;SDS011;4052;50.500;8.660;2022-07-29T08:58:08;1.27;;;0.83;;
8013;SDS011;4052;50.500;8.660;2022-07-29T09:00:36;0.70;;;0.70;;
8013;SDS011;4052;50.500;8.660;2022-07-29T09:03:02;0.80;;;0.80;;
8013;SDS011;4052;50.500;8.660;2022-07-29T09:05:30;0.60;;;0.60;;
8013;SDS011;4052;50.500;8.660;2022-07-29T09:07:56;0.90;;;0.90;;
8013;SDS011;4052;50.500;8.660;2022-07-29T09:10:22;0.80;;;0.80;;
8013;SDS011;4052;50.500;8.660;2022-07-29T09:12:48;0.97;;;0.97;;
8013;SDS011;4052;50.500;8.660;2022-07-29T09:15:14;1.07;;;0.97;;
8013;SDS011;4052;50.500;8.660;2022-07-29T09:17:44;1.70;;;0.83;;
8013;SDS011;4052;50.500;8.660;2022-07-29T09:20:14;0.70;;;0.70;;
8013;SDS011;4052;50.500;8.660;2022-07-29T09:22:40;0.70;;;0.70;;
8013;SDS011;4052;50.500;8.660;2022-07-29T09:25:06;1.10;;;1.00;;
8013;SDS011;4052;50.500;8.660;2022-07-29T09:27:33;1.17;;;0.67;;
8013;SDS011;4052;50.500;8.660;2022-07-29T09:29:59;0.80;;;0.80;;
8013;SDS011;4052;50.500;8.660;2022-07-29T09:32:26;0.83;;;0.70;;
8013;SDS011;4052;50.500;8.660;2022-07-29T09:37:37;0.80;;;0.80;;
8013;SDS011;4052;50.500;8.660;2022-07-29T09:40:10;1.23;;;0.90;;
8013;SDS011;4052;50.500;8.660;2022-07-29T09:42:36;0.70;;;0.70;;
8013;SDS011;4052;50.500;8.660;2022-07-29T09:45:03;1.23;;;0.70;;
8013;SDS011;4052;50.500;8.660;2022-07-29T09:47:42;0.97;;;0.97;;
8013;SDS011;4052;50.500;8.660;2022-07-29T09:50:10;0.73;;;0.67;;
8013;SDS011;4052;50.500;8.660;2022-07-29T09:52:44;0.50;;;0.50;;
8013;SDS011;4052;50.500;8.660;2022-07-29T09:55:10;1.10;;;1.10;;
8013;SDS011;4052;50.500;8.660;2022-07-29T09:57:36;5.03;;;1.50;;
8013;SDS011;4052;50.500;8.660;2022-07-29T10:02:30;2.40;;;1.20;;
8013;SDS011;4052;50.500;8.660;2022-07-29T10:04:58;0.80;;;0.80;;
8013;SDS011;4052;50.500;8.660;2022-07-29T10:07:24;0.90;;;0.90;;
8013;SDS011;4052;50.500;8.660;2022-07-29T10:09:56;1.10;;;0.80;;
8013;SDS011;4052;50.500;8.660;2022-07-29T10:12:23;0.87;;;0.70;;
8013;SDS011;4052;50.500;8.660;2022-07-29T10:14:49;0.50;;;0.50;;
8013;SDS011;4052;50.500;8.660;2022-07-29T10:17:16;1.03;;;1.03;;
8013;SDS011;4052;50.500;8.660;2022-07-29T10:19:42;0.90;;;0.90;;
8013;SDS011;4052;50.500;8.660;2022-07-29T10:22:09;2.20;;;0.97;;
8013;SDS011;4052;50.500;8.660;2022-07-29T10:24:36;1.70;;;1.00;;
8013;SDS011;4052;50.500;8.660;2022-07-29T10:27:06;1.00;;;1.00;;
8013;SDS011;4052;50.500;8.660;2022-07-29T10:29:32;0.63;;;0.63;;
8013;SDS011;4052;50.500;8.660;2022-07-29T10:32:21;1.33;;;0.93;;
8013;SDS011;4052;50.500;8.660;2022-07-29T10:34:55;1.27;;;0.90;;
8013;SDS011;4052;50.500;8.660;2022-07-29T10:37:47;1.07;;;0.70;;
8013;SDS011;4052;50.500;8.660;2022-07-29T10:43:25;1.10;;;1.00;;
8013;SDS011;4052;50.500;8.660;2022-07-29T10:45:49;0.97;;;0.80;;
8013;SDS011;4052;50.500;8.660;2022-07-29T10:48:20;1.27;;;0.73;;
8013;SDS011;4052;50.500;8.660;2022-07-29T10:53:22;1.00;;;0.80;;
8013;SDS011;4052;50.500;8.660;2022-07-29T10:55:48;1.00;;;0.90;;
8013;SDS011;4052;50.500;8.660;2022-07-29T11:00:41;1.17;;;1.07;;
8013;SDS011;4052;50.500;8.660;2022-07-29T11:03:07;1.03;;;0.97;;
8013;SDS011;4052;50.500;8.660;2022-07-29T11:05:51;2.23;;;0.77;;
8013;SDS011;4052;50.500;8.660;2022-07-29T11:08:18;0.80;;;0.80;;
8013;SDS011;4052;50.500;8.660;2022-07-29T11:10:49;1.10;;;0.90;;
8013;SDS011;4052;50.500;8.660;2022-07-29T11:16:00;0.70;;;0.70;;
8013;SDS011;4052;50.500;8.660;2022-07-29T11:18:27;0.77;;;0.77;;
8013;SDS011;4052;50.500;8.660;2022-07-29T11:20:53;0.90;;;0.90;;
8013;SDS011;4052;50.500;8.660;2022-07-29T11:28:39;0.83;;;0.83;;
8013;SDS011;4052;50.500;8.660;2022-07-29T11:31:08;1.43;;;0.90;;
8013;SDS011;4052;50.500;8.660;2022-07-29T11:33:35;0.80;;;0.80;;
8013;SDS011;4052;50.500;8.660;2022-07-29T11:38:35;0.80;;;0.80;;
8013;SDS011;4052;50.500;8.660;2022-07-29T11:41:20;0.80;;;0.80;;
8013;SDS011;4052;50.500;8.660;2022-07-29T11:49:04;1.10;;;1.00;;
8013;SDS011;4052;50.500;8.660;2022-07-29T11:51:30;1.00;;;0.90;;
8013;SDS011;4052;50.500;8.660;2022-07-29T11:53:57;0.97;;;0.97;;
8013;SDS011;4052;50.500;8.660;2022-07-29T11:56:23;1.00;;;1.00;;
8013;SDS011;4052;50.500;8.660;2022-07-29T11:59:00;1.00;;;0.90;;
8013;SDS011;4052;50.500;8.660;2022-07-29T12:01:26;1.03;;;1.03;;
8013;SDS011;4052;50.500;8.660;2022-07-29T12:04:01;0.90;;;0.90;;
8013;SDS011;4052;50.500;8.660;2022-07-29T12:06:27;1.50;;;0.77;;
8013;SDS011;4052;50.500;8.660;2022-07-29T12:08:53;1.43;;;1.30;;
8013;SDS011;4052;50.500;8.660;2022-07-29T12:11:19;0.90;;;0.90;;
8013;SDS011;4052;50.500;8.660;2022-07-29T12:13:46;1.40;;;0.90;;
8013;SDS011;4052;50.500;8.660;2022-07-29T12:16:11;0.93;;;0.93;;
8013;SDS011;4052;50.500;8.660;2022-07-29T12:18:37;0.80;;;0.80;;
8013;SDS011;4052;50.500;8.660;2022-07-29T12:21:03;2.77;;;1.30;;
8013;SDS011;4052;50.500;8.660;2022-07-29T12:23:30;0.90;;;0.90;;
8013;SDS011;4052;50.500;8.660;2022-07-29T12:25:57;1.73;;;1.07;;
8013;SDS011;4052;50.500;8.660;2022-07-29T12:28:23;1.30;;;1.20;;
8013;SDS011;4052;50.500;8.660;2022-07-29T12:30:50;1.03;;;0.90;;
8013;SDS011;4052;50.500;8.660;2022-07-29T12:33:20;1.47;;;1.03;;
8013;SDS011;4052;50.500;8.660;2022-07-29T12:35:47;1.80;;;1.10;;
8013;SDS011;4052;50.500;8.660;2022-07-29T12:38:13;0.87;;;0.87;;
8013;SDS011;4052;50.500;8.660;2022-07-29T12:40:40;0.70;;;0.70;;
8013;SDS011;4052;50.500;8.660;2022-07-29T12:45:35;1.05;;;1.02;;
8013;SDS011;4052;50.500;8.660;2022-07-29T12:48:01;1.10;;;1.00;;
8013;SDS011;4052;50.500;8.660;2022-07-29T12:50:27;1.23;;;0.90;;
8013;SDS011;4052;50.500;8.660;2022-07-29T12:52:53;0.87;;;0.87;;
8013;SDS011;4052;50.500;8.660;2022-07-29T12:55:40;1.17;;;1.00;;
8013;SDS011;4052;50.500;8.660;2022-07-29T12:58:06;1.30;;;1.13;;
8013;SDS011;4052;50.500;8.660;2022-07-29T13:00:32;1.20;;;1.10;;
8013;SDS011;4052;50.500;8.660;2022-07-29T13:02:59;0.90;;;0.90;;
8013;SDS011;4052;50.500;8.660;2022-07-29T13:05:41;1.10;;;0.87;;
8013;SDS011;4052;50.500;8.660;2022-07-29T13:08:11;0.90;;;0.90;;
8013;SDS011;4052;50.500;8.660;2022-07-29T13:10:37;1.63;;;0.97;;
8013;SDS011;4052;50.500;8.660;2022-07-29T13:15:29;1.40;;;1.30;;
8013;SDS011;4052;50.500;8.660;2022-07-29T13:17:55;0.80;;;0.80;;
8013;SDS011;4052;50.500;8.660;2022-07-29T13:20:23;1.33;;;1.00;;
8013;SDS011;4052;50.500;8.660;2022-07-29T13:22:49;1.20;;;0.67;;
8013;SDS011;4052;50.500;8.660;2022-07-29T13:25:23;1.17;;;1.07;;
8013;SDS011;4052;50.500;8.660;2022-07-29T13:27:49;1.67;;;1.00;;
8013;SDS011;4052;50.500;8.660;2022-07-29T13:30:15;1.23;;;0.87;;
8013;SDS011;4052;50.500;8.660;2022-07-29T13:32:41;0.80;;;0.80;;
8013;SDS011;4052;50.500;8.660;2022-07-29T13:35:07;1.00;;;0.77;;
8013;SDS011;4052;50.500;8.660;2022-07-29T13:37:34;0.80;;;0.80;;
8013;SDS011;4052;50.500;8.660;2022-07-29T13:40:03;0.93;;;0.83;;
8013;SDS011;4052;50.500;8.660;2022-07-29T13:42:29;1.00;;;1.00;;
8013;SDS011;4052;50.500;8.660;2022-07-29T13:44:55;0.90;;;0.90;;
8013;SDS011;4052;50.500;8.660;2022-07-29T13:47:21;2.60;;;1.00;;
8013;SDS011;4052;50.500;8.660;2022-07-29T13:49:48;1.10;;;1.00;;
8013;SDS011;4052;50.500;8.660;2022-07-29T13:52:14;1.53;;;0.93;;
8013;SDS011;4052;50.500;8.660;2022-07-29T13:54:40;1.17;;;1.00;;
8013;SDS011;4052;50.500;8.660;2022-07-29T13:57:06;0.90;;;0.90;;
8013;SDS011;4052;50.500;8.660;2022-07-29T13:59:32;1.30;;;1.20;;
8013;SDS011;4052;50.500;8.660;2022-07-29T14:01:58;0.93;;;0.90;;
8013;SDS011;4052;50.500;8.660;2022-07-29T14:04:24;1.13;;;0.80;;
8013;SDS011;4052;50.500;8.660;2022-07-29T14:06:51;3.87;;;0.87;;
8013;SDS011;4052;50.500;8.660;2022-07-29T14:09:17;1.17;;;1.07;;
8013;SDS011;4052;50.500;8.660;2022-07-29T14:11:43;1.30;;;1.20;;
8013;SDS011;4052;50.500;8.660;2022-07-29T14:14:10;1.10;;;1.00;;
8013;SDS011;4052;50.500;8.660;2022-07-29T14:16:36;0.93;;;0.93;;
8013;SDS011;4052;50.500;8.660;2022-07-29T14:19:03;0.97;;;0.93;;
8013;SDS011;4052;50.500;8.660;2022-07-29T14:21:29;1.10;;;1.00;;
8013;SDS011;4052;50.500;8.660;2022-07-29T14:23:55;1.00;;;0.90;;
8013;SDS011;4052;50.500;8.660;2022-07-29T14:26:21;1.33;;;1.23;;
8013;SDS011;4052;50.500;8.660;2022-07-29T14:28:48;0.97;;;0.97;;
8013;SDS011;4052;50.500;8.660;2022-07-29T14:31:14;1.47;;;0.90;;
8013;SDS011;4052;50.500;8.660;2022-07-29T14:33:40;1.13;;;1.03;;
8013;SDS011;4052;50.500;8.660;2022-07-29T14:36:06;1.30;;;1.00;;
8013;SDS011;4052;50.500;8.660;2022-07-29T14:38:32;0.87;;;0.87;;
8013;SDS011;4052;50.500;8.660;2022-07-29T14:40:58;1.00;;;1.00;;
8013;SDS011;4052;50.500;8.660;2022-07-29T14:43:24;1.53;;;0.87;;
8013;SDS011;4052;50.500;8.660;2022-07-29T14:45:50;0.90;;;0.90;;
8013;SDS011;4052;50.500;8.660;2022-07-29T14:48:16;0.77;;;0.77;;
8013;SDS011;4052;50.500;8.660;2022-07-29T14:50:42;1.33;;;1.33;;
8013;SDS011;4052;50.500;8.660;2022-07-29T14:53:08;1.13;;;1.07;;
8013;SDS011;4052;50.500;8.660;2022-07-29T14:55:37;0.90;;;0.90;;
8013;SDS011;4052;50.500;8.660;2022-07-29T14:58:03;1.30;;;1.20;;
8013;SDS011;4052;50.500;8.660;2022-07-29T15:00:29;1.30;;;0.93;;
8013;SDS011;4052;50.500;8.660;2022-07-29T15:02:57;2.33;;;1.10;;
8013;SDS011;4052;50.500;8.660;2022-07-29T15:05:23;0.70;;;0.70;;
8013;SDS011;4052;50.500;8.660;2022-07-29T15:07:49;1.53;;;1.43;;
8013;SDS011;4052;50.500;8.660;2022-07-29T15:10:15;1.40;;;1.30;;
8013;SDS011;4052;50.500;8.660;2022-07-29T15:12:41;1.20;;;1.10;;
8013;SDS011;4052;50.500;8.660;2022-07-29T15:15:07;2.00;;;1.07;;
8013;SDS011;4052;50.500;8.660;2022-07-29T15:17:33;1.47;;;0.90;;
8013;SDS011;4052;50.500;8.660;2022-07-29T15:19:59;1.10;;;1.10;;
8013;SDS011;4052;50.500;8.660;2022-07-29T15:22:25;1.17;;;1.07;;
8013;SDS011;4052;50.500;8.660;2022-07-29T15:24:51;1.10;;;1.10;;
8013;SDS011;4052;50.500;8.660;2022-07-29T15:27:17;1.83;;;1.23;;
8013;SDS011;4052;50.500;8.660;2022-07-29T15:29:43;1.93;;;1.13;;
8013;SDS011;4052;50.500;8.660;2022-07-29T15:32:10;1.10;;;1.10;;
8013;SDS011;4052;50.500;8.660;2022-07-29T15:34:36;1.73;;;1.63;;
8013;SDS011;4052;50.500;8.660;2022-07-29T15:37:02;1.63;;;1.47;;
8013;SDS011;4052;50.500;8.660;2022-07-29T15:39:28;1.30;;;1.20;;
8013;SDS011;4052;50.500;8.660;2022-07-29T15:41:54;2.40;;;1.13;;
8013;SDS011;4052;50.500;8.660;2022-07-29T15:44:20;1.00;;;1.00;;
8013;SDS011;4052;50.500;8.660;2022-07-29T15:46:47;1.23;;;1.13;;
8013;SDS011;4052;50.500;8.660;2022-07-29T15:49:35;1.63;;;1.53;;
8013;SDS011;4052;50.500;8.660;2022-07-29T15:52:02;1.40;;;1.27;;
8013;SDS011;4052;50.500;8.660;2022-07-29T15:54:28;1.17;;;1.07;;
8013;SDS011;4052;50.500;8.660;2022-07-29T15:56:55;1.40;;;1.30;;
8013;SDS011;4052;50.500;8.660;2022-07-29T15:59:21;1.03;;;1.00;;
8013;SDS011;4052;50.500;8.660;2022-07-29T16:01:47;0.97;;;0.97;;